createdAt,value
2023-01-15T00:02:10.305Z,0.20
2023-01-15T00:04:40.110Z,0.20
2023-01-15T00:07:08.401Z,0.30
2023-01-15T00:09:36.584Z,0.20
2023-01-15T00:12:05.591Z,0.27
2023-01-15T00:14:33.933Z,0.30
2023-01-15T00:17:02.191Z,0.40
2023-01-15T00:19:30.391Z,0.30
2023-01-15T00:21:59.945Z,0.30
2023-01-15T00:24:46.075Z,0.40
2023-01-15T00:27:32.463Z,0.20
2023-01-15T00:30:00.694Z,0.20
2023-01-15T00:32:29.810Z,0.20
2023-01-15T00:34:59.531Z,0.40
2023-01-15T00:37:29.205Z,0.20
2023-01-15T00:39:57.531Z,0.30
2023-01-15T00:42:25.881Z,0.20
2023-01-15T00:44:54.029Z,0.30
2023-01-15T00:47:22.323Z,0.20
2023-01-15T00:49:51.593Z,0.20
2023-01-15T00:52:19.811Z,0.53
2023-01-15T00:54:49.398Z,0.20
2023-01-15T00:57:17.577Z,0.20
2023-01-15T00:59:45.712Z,0.20
2023-01-15T01:02:14.087Z,0.23
2023-01-15T01:04:42.270Z,0.20
2023-01-15T01:07:10.923Z,0.50
2023-01-15T01:09:39.090Z,0.20
2023-01-15T01:12:09.205Z,0.33
2023-01-15T01:14:39.533Z,0.37
2023-01-15T01:17:07.808Z,0.20
2023-01-15T01:19:37.710Z,0.20
2023-01-15T01:22:06.004Z,0.20
2023-01-15T01:24:34.414Z,0.30
2023-01-15T01:27:02.582Z,0.20
2023-01-15T01:29:32.158Z,0.20
2023-01-15T01:32:00.331Z,0.20
2023-01-15T01:34:28.568Z,0.20
2023-01-15T01:36:56.736Z,0.27
2023-01-15T01:39:24.842Z,0.60
2023-01-15T01:41:53.033Z,0.20
2023-01-15T01:45:02.077Z,0.30
2023-01-15T01:47:33.441Z,0.47
2023-01-15T01:50:08.973Z,0.20
2023-01-15T01:52:45.158Z,0.23
2023-01-15T01:55:17.886Z,0.30
2023-01-15T01:57:48.247Z,0.20
2023-01-15T02:00:18.828Z,0.30
2023-01-15T02:02:50.096Z,0.20
2023-01-15T02:05:30.327Z,0.30
2023-01-15T02:07:59.118Z,0.40
2023-01-15T02:10:28.096Z,0.20
2023-01-15T02:13:06.023Z,0.27
2023-01-15T02:15:41.730Z,0.20
2023-01-15T02:18:23.585Z,0.20
2023-01-15T02:20:59.631Z,0.23
2023-01-15T02:24:11.760Z,0.20
2023-01-15T02:27:16.176Z,0.40
2023-01-15T02:29:59.209Z,0.40
2023-01-15T02:32:39.981Z,0.30
2023-01-15T02:35:17.982Z,0.20
2023-01-15T02:37:52.718Z,0.30
2023-01-15T02:40:24.618Z,0.33
2023-01-15T02:42:57.717Z,0.20
2023-01-15T02:45:31.453Z,0.20
2023-01-15T02:48:08.469Z,0.27
2023-01-15T02:50:45.430Z,0.80
2023-01-15T02:53:21.413Z,0.20
2023-01-15T02:55:55.194Z,0.20
2023-01-15T02:58:29.585Z,0.20
2023-01-15T03:01:01.329Z,0.40
2023-01-15T03:03:47.618Z,0.20
2023-01-15T03:06:23.771Z,0.20
2023-01-15T03:08:52.027Z,0.40
2023-01-15T03:11:22.050Z,0.40
2023-01-15T03:14:03.394Z,0.20
2023-01-15T03:16:38.141Z,0.20
2023-01-15T03:19:26.655Z,0.20
2023-01-15T03:22:02.897Z,0.30
2023-01-15T03:24:39.832Z,0.20
2023-01-15T03:27:09.185Z,0.20
2023-01-15T03:29:44.015Z,0.30
2023-01-15T03:32:12.311Z,0.20
2023-01-15T03:34:47.246Z,0.20
2023-01-15T03:37:15.994Z,0.20
2023-01-15T03:39:44.986Z,0.20
2023-01-15T03:42:27.840Z,0.30
2023-01-15T03:45:10.610Z,0.30
2023-01-15T03:47:56.059Z,0.20
2023-01-15T03:50:36.313Z,0.20
2023-01-15T03:53:14.496Z,0.30
2023-01-15T03:55:52.205Z,0.27
2023-01-15T03:58:28.988Z,0.37
2023-01-15T04:01:03.348Z,0.60
2023-01-15T04:03:35.161Z,0.20
2023-01-15T04:06:05.691Z,0.30
2023-01-15T04:08:38.685Z,0.20
2023-01-15T04:11:07.735Z,0.20
2023-01-15T04:13:35.887Z,0.20
2023-01-15T04:16:06.026Z,0.30
2023-01-15T04:18:34.275Z,0.20
2023-01-15T04:21:04.238Z,0.20
2023-01-15T04:23:33.495Z,0.20
2023-01-15T04:26:01.646Z,0.20
2023-01-15T04:28:29.910Z,0.20
2023-01-15T04:30:59.796Z,0.20
2023-01-15T04:33:29.453Z,0.20
2023-01-15T04:36:00.876Z,0.23
2023-01-15T04:38:29.331Z,0.40
2023-01-15T04:41:19.502Z,0.30
2023-01-15T04:44:05.007Z,0.20
2023-01-15T04:46:34.498Z,0.20
2023-01-15T04:49:04.211Z,0.30
2023-01-15T04:51:32.434Z,0.20
2023-01-15T04:54:03.548Z,0.20
2023-01-15T04:56:31.824Z,0.20
2023-01-15T04:59:02.437Z,0.20
2023-01-15T05:01:30.697Z,0.20
2023-01-15T05:03:58.956Z,0.20
2023-01-15T05:06:28.943Z,0.40
2023-01-15T05:08:57.089Z,0.30
2023-01-15T05:11:26.117Z,0.20
2023-01-15T05:13:54.497Z,0.53
2023-01-15T05:16:26.337Z,0.20
2023-01-15T05:18:57.804Z,0.20
2023-01-15T05:21:31.614Z,0.20
2023-01-15T05:24:03.579Z,0.20
2023-01-15T05:26:34.659Z,0.37
2023-01-15T05:29:05.290Z,0.20
2023-01-15T05:31:34.575Z,0.20
2023-01-15T05:34:03.260Z,0.30
2023-01-15T05:36:33.403Z,0.20
2023-01-15T05:39:02.669Z,0.20
2023-01-15T05:41:50.025Z,0.13
2023-01-15T05:44:21.609Z,0.20
2023-01-15T05:46:51.797Z,0.40
2023-01-15T05:49:24.850Z,0.20
2023-01-15T05:51:55.832Z,0.10
2023-01-15T05:54:26.839Z,0.20
2023-01-15T05:56:55.543Z,0.20
2023-01-15T05:59:26.529Z,0.20
2023-01-15T06:01:56.056Z,0.20
2023-01-15T06:04:25.264Z,0.20
2023-01-15T06:06:56.524Z,0.23
2023-01-15T06:09:27.909Z,0.20
2023-01-15T06:11:56.306Z,0.20
2023-01-15T06:14:25.323Z,0.20
2023-01-15T06:16:53.574Z,0.20
2023-01-15T06:19:22.017Z,0.10
2023-01-15T06:21:50.214Z,0.20
2023-01-15T06:24:20.791Z,0.40
2023-01-15T06:26:49.039Z,0.20
2023-01-15T06:29:18.769Z,0.30
2023-01-15T06:31:48.333Z,0.20
2023-01-15T06:34:16.668Z,0.30
2023-01-15T06:36:45.018Z,0.20
2023-01-15T06:39:13.320Z,0.30
2023-01-15T06:42:00.228Z,0.20
2023-01-15T06:44:45.675Z,0.20
2023-01-15T06:47:24.650Z,0.27
2023-01-15T06:49:56.547Z,0.20
2023-01-15T06:52:26.328Z,0.30
2023-01-15T06:54:55.130Z,0.27
2023-01-15T06:57:25.212Z,0.20
2023-01-15T06:59:53.591Z,0.20
2023-01-15T07:02:22.887Z,0.20
2023-01-15T07:04:52.393Z,0.30
2023-01-15T07:07:22.536Z,0.20
2023-01-15T07:09:51.610Z,0.30
2023-01-15T07:12:20.101Z,0.30
2023-01-15T07:14:49.655Z,0.40
2023-01-15T07:17:17.847Z,0.20
2023-01-15T07:19:47.588Z,0.20
2023-01-15T07:22:15.748Z,0.20
2023-01-15T07:24:43.950Z,0.20
2023-01-15T07:27:12.087Z,0.27
2023-01-15T07:29:40.309Z,0.30
2023-01-15T07:32:10.734Z,0.30
2023-01-15T07:34:38.850Z,0.20
2023-01-15T07:37:07.448Z,0.20
2023-01-15T07:39:35.612Z,0.30
2023-01-15T07:42:21.516Z,0.20
2023-01-15T07:45:07.310Z,0.20
2023-01-15T07:47:54.649Z,0.40
2023-01-15T07:50:25.738Z,0.20
2023-01-15T07:52:54.002Z,0.20
2023-01-15T07:55:23.626Z,0.20
2023-01-15T07:57:53.528Z,0.30
2023-01-15T08:00:24.947Z,0.20
2023-01-15T08:02:54.565Z,0.20
2023-01-15T08:05:22.830Z,0.20
2023-01-15T08:07:50.980Z,0.27
2023-01-15T08:10:20.638Z,0.30
2023-01-15T08:13:05.679Z,0.20
2023-01-15T08:15:40.509Z,0.20
2023-01-15T08:18:10.389Z,0.20
2023-01-15T08:20:38.609Z,0.20
2023-01-15T08:23:06.791Z,0.20
2023-01-15T08:25:35.136Z,0.30
2023-01-15T08:28:03.828Z,0.30
2023-01-15T08:30:32.114Z,0.20
2023-01-15T08:33:03.655Z,0.23
2023-01-15T08:35:34.253Z,0.30
2023-01-15T08:38:06.821Z,0.20
2023-01-15T08:40:36.245Z,0.30
2023-01-15T08:43:04.730Z,0.30
2023-01-15T08:45:32.914Z,0.20
2023-01-15T08:48:01.208Z,0.20
2023-01-15T08:50:29.397Z,0.20
2023-01-15T08:52:58.955Z,0.40
2023-01-15T08:55:27.294Z,0.20
2023-01-15T08:57:55.593Z,0.20
2023-01-15T09:00:24.972Z,0.20
2023-01-15T09:02:53.172Z,0.20
2023-01-15T09:05:24.018Z,0.30
2023-01-15T09:07:52.264Z,0.30
2023-01-15T09:10:22.318Z,0.30
2023-01-15T09:12:51.470Z,0.30
2023-01-15T09:15:19.887Z,0.30
2023-01-15T09:17:48.129Z,0.40
2023-01-15T09:20:16.367Z,1.07
2023-01-15T09:22:44.525Z,0.80
2023-01-15T09:25:12.760Z,1.57
2023-01-15T09:27:42.359Z,7.53
2023-01-15T09:30:17.683Z,2.70
2023-01-15T09:32:45.946Z,0.77
2023-01-15T09:35:14.260Z,0.80
2023-01-15T09:37:42.569Z,0.93
2023-01-15T09:40:41.515Z,0.57
2023-01-15T09:43:25.698Z,1.00
2023-01-15T09:46:02.335Z,2.77
2023-01-15T09:48:48.324Z,4.23
2023-01-15T09:51:29.304Z,2.90
2023-01-15T09:54:18.956Z,6.77
2023-01-15T09:56:54.408Z,5.70
2023-01-15T09:59:35.382Z,7.00
2023-01-15T10:02:20.934Z,9.73
2023-01-15T10:04:56.792Z,3.87
2023-01-15T10:07:31.530Z,5.20
2023-01-15T10:10:07.791Z,4.60
2023-01-15T10:12:40.632Z,5.03
2023-01-15T10:15:24.977Z,0.73
2023-01-15T10:17:56.109Z,2.33
2023-01-15T10:20:53.290Z,2.17
2023-01-15T10:23:43.310Z,1.80
2023-01-15T10:26:21.674Z,2.40
2023-01-15T10:29:03.628Z,1.90
2023-01-15T10:31:51.207Z,1.07
2023-01-15T10:35:09.128Z,0.90
2023-01-15T10:37:45.680Z,1.07
2023-01-15T10:40:58.754Z,1.63
2023-01-15T10:43:40.403Z,0.57
2023-01-15T10:46:15.303Z,2.17
2023-01-15T10:48:49.972Z,1.73
2023-01-15T10:51:23.055Z,0.97
2023-01-15T10:53:56.285Z,0.73
2023-01-15T10:56:36.530Z,1.43
2023-01-15T10:59:17.513Z,0.40
2023-01-15T11:01:48.783Z,0.63
2023-01-15T11:04:18.461Z,0.37
2023-01-15T11:06:46.859Z,0.60
2023-01-15T11:09:23.424Z,0.43
2023-01-15T11:12:22.044Z,1.70
2023-01-15T11:15:07.824Z,2.10
2023-01-15T11:18:00.833Z,0.90
2023-01-15T11:20:34.560Z,0.80
2023-01-15T11:23:10.116Z,0.77
2023-01-15T11:25:48.713Z,0.20
2023-01-15T11:28:17.951Z,0.30
2023-01-15T11:30:56.345Z,0.53
2023-01-15T11:33:27.902Z,0.20
2023-01-15T11:36:00.386Z,0.40
2023-01-15T11:38:30.896Z,0.20
2023-01-15T11:41:02.166Z,0.20
2023-01-15T11:43:49.834Z,0.20
2023-01-15T11:46:50.441Z,0.20
2023-01-15T11:49:38.744Z,0.37
2023-01-15T11:52:14.230Z,0.30
2023-01-15T11:54:47.435Z,0.40
2023-01-15T11:57:27.555Z,0.20
2023-01-15T11:59:56.049Z,0.20
2023-01-15T12:02:36.619Z,0.20
2023-01-15T12:05:07.739Z,0.20
2023-01-15T12:07:41.105Z,0.20
2023-01-15T12:10:42.914Z,0.20
2023-01-15T12:13:29.318Z,0.20
2023-01-15T12:16:14.005Z,0.23
2023-01-15T12:18:58.991Z,0.20
2023-01-15T12:22:03.228Z,0.50
2023-01-15T12:24:54.711Z,0.23
2023-01-15T12:27:53.181Z,0.30
2023-01-15T12:30:40.037Z,0.20
2023-01-15T12:33:33.773Z,0.20
2023-01-15T12:36:09.919Z,0.20
2023-01-15T12:38:49.827Z,0.20
2023-01-15T12:41:47.386Z,0.20
2023-01-15T12:44:38.446Z,0.20
2023-01-15T12:47:15.233Z,0.20
2023-01-15T12:49:50.610Z,0.20
2023-01-15T12:52:26.025Z,0.20
2023-01-15T12:55:07.891Z,0.20
2023-01-15T12:57:41.979Z,0.20
2023-01-15T13:00:19.211Z,0.53
2023-01-15T13:03:08.319Z,0.30
2023-01-15T13:05:47.535Z,0.23
2023-01-15T13:08:24.792Z,0.30
2023-01-15T13:10:54.091Z,0.20
2023-01-15T13:13:26.857Z,1.27
2023-01-15T13:16:16.891Z,0.20
2023-01-15T13:19:04.686Z,0.20
2023-01-15T13:21:37.830Z,0.20
2023-01-15T13:24:48.874Z,0.30
2023-01-15T13:27:34.236Z,0.40
2023-01-15T13:30:22.103Z,0.30
2023-01-15T13:32:54.998Z,0.23
2023-01-15T13:35:33.417Z,0.30
2023-01-15T13:38:08.359Z,0.30
2023-01-15T13:40:43.991Z,0.30
2023-01-15T13:43:30.947Z,0.20
2023-01-15T13:46:04.488Z,0.30
2023-01-15T13:48:41.407Z,0.20
2023-01-15T13:51:28.610Z,0.63
2023-01-15T13:54:00.097Z,0.50
2023-01-15T13:56:32.127Z,0.20
2023-01-15T13:59:05.885Z,0.40
2023-01-15T14:01:38.066Z,0.20
2023-01-15T14:04:14.487Z,0.30
2023-01-15T14:06:45.935Z,0.30
2023-01-15T14:09:29.439Z,0.20
2023-01-15T14:12:19.286Z,0.30
2023-01-15T14:15:20.954Z,0.50
2023-01-15T14:18:44.028Z,0.30
2023-01-15T14:21:26.016Z,0.20
2023-01-15T14:24:28.227Z,0.30
2023-01-15T14:27:07.103Z,0.27
2023-01-15T14:30:11.290Z,0.30
2023-01-15T14:33:02.090Z,0.20
2023-01-15T14:35:39.187Z,0.40
2023-01-15T14:38:14.886Z,0.20
2023-01-15T14:40:59.518Z,0.40
2023-01-15T14:43:33.366Z,0.20
2023-01-15T14:46:16.401Z,0.20
2023-01-15T14:48:46.036Z,0.20
2023-01-15T14:51:17.897Z,0.30
2023-01-15T14:53:50.459Z,0.27
2023-01-15T14:56:25.128Z,0.90
2023-01-15T14:59:01.125Z,0.30
2023-01-15T15:01:45.305Z,0.50
2023-01-15T15:04:40.159Z,0.23
2023-01-15T15:07:15.238Z,0.30
2023-01-15T15:09:48.672Z,0.50
2023-01-15T15:12:32.308Z,0.23
2023-01-15T15:15:13.331Z,0.30
2023-01-15T15:17:59.586Z,0.30
2023-01-15T15:20:53.733Z,0.37
2023-01-15T15:23:29.393Z,0.20
2023-01-15T15:26:00.982Z,0.30
2023-01-15T15:28:30.310Z,0.30
2023-01-15T15:31:02.039Z,0.30
2023-01-15T15:33:40.095Z,0.30
2023-01-15T15:36:10.893Z,0.30
2023-01-15T15:38:44.650Z,0.30
2023-01-15T15:41:14.447Z,0.20
2023-01-15T15:44:08.000Z,0.30
2023-01-15T15:46:55.413Z,0.97
2023-01-15T15:49:23.765Z,0.30
2023-01-15T15:51:54.768Z,0.30
2023-01-15T15:54:26.437Z,0.30
2023-01-15T15:57:02.588Z,0.30
2023-01-15T15:59:35.491Z,0.30
2023-01-15T16:02:18.132Z,0.30
2023-01-15T16:04:48.482Z,0.30
2023-01-15T16:07:28.331Z,0.30
2023-01-15T16:10:01.500Z,0.30
2023-01-15T16:12:35.354Z,0.30
2023-01-15T16:15:05.443Z,0.73
2023-01-15T16:17:34.887Z,0.37
2023-01-15T16:20:03.414Z,0.37
2023-01-15T16:22:33.158Z,0.70
2023-01-15T16:25:02.637Z,0.40
2023-01-15T16:27:35.754Z,0.30
2023-01-15T16:30:04.918Z,0.30
2023-01-15T16:32:35.804Z,0.27
2023-01-15T16:35:16.012Z,0.40
2023-01-15T16:37:51.388Z,0.30
2023-01-15T16:40:29.319Z,1.07
2023-01-15T16:43:11.201Z,0.30
2023-01-15T16:46:02.058Z,0.30
2023-01-15T16:48:37.718Z,0.40
2023-01-15T16:51:33.107Z,0.40
2023-01-15T16:54:05.675Z,0.30
2023-01-15T16:56:55.969Z,0.40
2023-01-15T17:00:00.200Z,0.30
2023-01-15T17:02:44.890Z,0.53
2023-01-15T17:05:23.843Z,0.20
2023-01-15T17:07:55.152Z,0.30
2023-01-15T17:10:29.653Z,0.30
2023-01-15T17:13:07.276Z,0.30
2023-01-15T17:15:42.887Z,0.33
2023-01-15T17:18:26.879Z,0.30
2023-01-15T17:20:55.866Z,0.30
2023-01-15T17:23:31.236Z,0.40
2023-01-15T17:26:00.848Z,0.40
2023-01-15T17:28:29.137Z,0.30
2023-01-15T17:31:02.793Z,0.30
2023-01-15T17:33:31.271Z,0.30
2023-01-15T17:36:01.155Z,0.30
2023-01-15T17:38:29.300Z,0.30
2023-01-15T17:41:03.503Z,0.40
2023-01-15T17:43:31.704Z,0.30
2023-01-15T17:46:01.043Z,0.40
2023-01-15T17:48:29.265Z,0.47
2023-01-15T17:51:00.131Z,0.30
2023-01-15T17:53:28.631Z,0.40
2023-01-15T17:56:14.142Z,0.60
2023-01-15T17:59:01.580Z,0.40
2023-01-15T18:01:51.939Z,0.30
2023-01-15T18:04:42.211Z,0.40
2023-01-15T18:07:10.932Z,0.30
2023-01-15T18:09:40.092Z,0.40
2023-01-15T18:12:08.776Z,0.40
2023-01-15T18:14:38.354Z,0.30
2023-01-15T18:17:06.675Z,0.30
2023-01-15T18:19:34.842Z,0.30
2023-01-15T18:22:03.034Z,0.30
2023-01-15T18:24:31.850Z,0.70
2023-01-15T18:27:00.117Z,0.70
2023-01-15T18:29:28.476Z,0.30
2023-01-15T18:31:58.000Z,0.30
2023-01-15T18:34:26.182Z,0.77
2023-01-15T18:36:54.378Z,0.30
2023-01-15T18:39:22.505Z,0.43
2023-01-15T18:42:08.085Z,0.30
2023-01-15T18:44:53.766Z,0.77
2023-01-15T18:47:26.932Z,0.40
2023-01-15T18:49:56.160Z,0.50
2023-01-15T18:52:41.849Z,0.40
2023-01-15T18:55:11.027Z,0.30
2023-01-15T18:57:39.238Z,0.40
2023-01-15T19:00:09.484Z,0.30
2023-01-15T19:02:39.237Z,0.77
2023-01-15T19:05:08.081Z,0.50
2023-01-15T19:07:36.280Z,0.30
2023-01-15T19:10:04.985Z,0.40
2023-01-15T19:12:35.022Z,0.30
2023-01-15T19:15:20.830Z,0.40
2023-01-15T19:18:07.732Z,0.30
2023-01-15T19:20:35.972Z,0.67
2023-01-15T19:23:06.398Z,0.40
2023-01-15T19:25:39.536Z,0.30
2023-01-15T19:28:09.868Z,0.40
2023-01-15T19:30:40.434Z,0.50
2023-01-15T19:33:11.649Z,0.30
2023-01-15T19:35:40.665Z,0.30
2023-01-15T19:38:10.513Z,0.30
2023-01-15T19:40:41.960Z,0.70
2023-01-15T19:43:29.697Z,0.20
2023-01-15T19:46:16.149Z,0.40
2023-01-15T19:49:03.283Z,0.30
2023-01-15T19:52:01.055Z,0.20
2023-01-15T19:54:43.085Z,0.20
2023-01-15T19:57:11.310Z,1.67
2023-01-15T19:59:39.703Z,0.30
2023-01-15T20:02:07.941Z,0.60
2023-01-15T20:04:37.628Z,0.60
2023-01-15T20:07:06.022Z,0.30
2023-01-15T20:09:34.542Z,0.40
2023-01-15T20:12:20.850Z,0.67
2023-01-15T20:14:49.272Z,0.63
2023-01-15T20:17:17.411Z,0.40
2023-01-15T20:19:47.298Z,0.43
2023-01-15T20:22:15.876Z,0.40
2023-01-15T20:24:44.462Z,0.30
2023-01-15T20:27:14.499Z,0.40
2023-01-15T20:29:42.812Z,0.40
2023-01-15T20:32:11.372Z,0.30
2023-01-15T20:34:40.319Z,0.67
2023-01-15T20:37:10.277Z,0.50
2023-01-15T20:39:38.441Z,0.20
2023-01-15T20:42:24.502Z,0.40
2023-01-15T20:44:55.927Z,0.30
2023-01-15T20:47:44.538Z,0.60
2023-01-15T20:50:16.648Z,0.40
2023-01-15T20:52:50.542Z,0.40
2023-01-15T20:55:20.589Z,0.77
2023-01-15T20:57:49.140Z,0.33
2023-01-15T21:00:20.874Z,0.40
2023-01-15T21:02:49.772Z,0.30
2023-01-15T21:05:20.387Z,0.30
2023-01-15T21:07:49.962Z,0.73
2023-01-15T21:10:18.899Z,0.40
2023-01-15T21:12:47.166Z,0.30
2023-01-15T21:15:15.567Z,0.30
2023-01-15T21:17:44.736Z,0.30
2023-01-15T21:20:16.549Z,0.30
2023-01-15T21:22:45.366Z,0.30
2023-01-15T21:25:15.059Z,0.40
2023-01-15T21:27:43.289Z,0.33
2023-01-15T21:30:13.072Z,0.30
2023-01-15T21:32:41.371Z,0.50
2023-01-15T21:35:09.695Z,0.40
2023-01-15T21:37:37.982Z,0.30
2023-01-15T21:40:08.197Z,0.30
2023-01-15T21:42:55.134Z,0.30
2023-01-15T21:45:23.385Z,0.40
2023-01-15T21:47:51.592Z,0.40
2023-01-15T21:50:20.393Z,0.33
2023-01-15T21:52:49.290Z,0.30
2023-01-15T21:55:17.652Z,0.30
2023-01-15T21:57:48.821Z,0.23
2023-01-15T22:00:20.414Z,0.30
2023-01-15T22:02:49.235Z,0.30
2023-01-15T22:05:17.782Z,0.30
2023-01-15T22:07:45.999Z,0.40
2023-01-15T22:10:14.243Z,0.30
2023-01-15T22:12:43.164Z,0.63
2023-01-15T22:15:15.606Z,1.00
2023-01-15T22:17:43.878Z,0.80
2023-01-15T22:20:12.801Z,1.43
2023-01-15T22:22:40.977Z,1.67
2023-01-15T22:25:13.303Z,1.87
2023-01-15T22:27:42.421Z,1.37
2023-01-15T22:30:16.831Z,1.60
2023-01-15T22:32:45.051Z,3.27
2023-01-15T22:35:13.231Z,2.80
2023-01-15T22:37:41.474Z,6.03
2023-01-15T22:40:11.671Z,8.90
2023-01-15T22:42:39.983Z,8.27
2023-01-15T22:45:09.102Z,3.60
2023-01-15T22:47:38.802Z,5.20
2023-01-15T22:50:08.056Z,3.23
2023-01-15T22:52:37.622Z,6.57
2023-01-15T22:55:06.985Z,4.30
2023-01-15T22:57:36.305Z,4.30
2023-01-15T23:00:06.774Z,4.57
2023-01-15T23:02:52.403Z,3.67
2023-01-15T23:05:22.903Z,2.73
2023-01-15T23:07:51.438Z,1.83
2023-01-15T23:10:19.894Z,3.17
2023-01-15T23:12:48.107Z,0.70
2023-01-15T23:15:16.358Z,0.63
2023-01-15T23:17:44.983Z,2.10
2023-01-15T23:20:14.862Z,1.90
2023-01-15T23:22:44.537Z,2.53
2023-01-15T23:25:12.849Z,1.80
2023-01-15T23:27:41.069Z,1.60
2023-01-15T23:30:11.652Z,2.60
2023-01-15T23:32:40.593Z,1.10
2023-01-15T23:35:10.000Z,1.80
2023-01-15T23:37:38.238Z,1.10
2023-01-15T23:40:10.631Z,1.60
2023-01-15T23:42:56.329Z,2.00
2023-01-15T23:45:41.849Z,0.40
2023-01-15T23:48:10.096Z,1.07
2023-01-15T23:50:38.736Z,0.47
2023-01-15T23:53:06.985Z,0.40
2023-01-15T23:55:36.531Z,0.40
2023-01-15T23:58:04.886Z,0.43
